Time;durP1;ratioP1;P1;durP2;ratioP2;P2;SDS_P1;SDS_P2;PMS_P1;PMS_P2;Temp;Humidity;BMP_temperature;BMP_pressure;BME280_temperature;BME280_humidity;BME280_pressure;Samples;Min_cycle;Max_cycle;Signal;HPM_P1;HPM_P2
2024/01/14 00:00:34;;;;;;;0.00;0.00;;;;;;;2.38;88.94;100155.56;15629481;28;20045;-46
2024/01/14 00:08:08;;;;;;;0.38;0.38;;;;;;;2.45;89.02;100148.56;15639520;28;20046;-46
2024/01/14 00:15:43;;;;;;;0.00;0.00;;;;;;;2.37;88.86;100156.53;15640519;28;20049;-46
2024/01/14 00:23:18;;;;;;;0.00;0.00;;;;;;;2.53;87.72;100156.50;15662222;28;20226;-45
2024/01/14 00:30:52;;;;;;;0.00;0.00;;;;;;;2.56;87.97;100142.06;15705625;22;20395;-53
2024/01/14 00:38:28;;;;;;;1.13;1.02;;;;;;;2.52;87.82;100143.44;15664723;28;20050;-52
2024/01/14 00:46:02;;;;;;;0.00;0.00;;;;;;;2.48;88.00;100126.22;15670581;28;20437;-53
2024/01/14 00:53:38;;;;;;;0.00;0.00;;;;;;;2.37;87.83;100129.22;15655034;28;20072;-53
2024/01/14 01:01:11;;;;;;;0.10;0.10;;;;;;;2.22;88.65;100118.53;15665489;28;20086;-51
2024/01/14 01:08:46;;;;;;;;;;;;;;;2.35;88.09;100116.19;15675544;28;20528;-53
2024/01/14 01:16:21;;;;;;;0.20;0.20;;;;;;;2.35;87.61;100120.66;15683686;28;20396;-52
2024/01/14 01:23:56;;;;;;;;;;;;;;;2.16;88.67;100111.28;15684982;28;20059;-53
2024/01/14 01:31:29;;;;;;;1.35;0.70;;;;;;;2.07;88.18;100109.66;15684303;28;19978;-52
2024/01/14 01:39:04;;;;;;;0.00;0.00;;;;;;;2.13;88.53;100090.44;15664611;28;20045;-55
2024/01/14 01:46:38;;;;;;;0.00;0.00;;;;;;;2.22;88.69;100076.19;15674541;28;20136;-53
2024/01/14 01:54:15;;;;;;;0.00;0.00;;;;;;;1.91;90.47;100092.84;15675999;28;20509;-52
2024/01/14 02:01:49;;;;;;;0.00;0.00;;;;;;;1.94;89.06;100073.16;15683551;28;20045;-55
2024/01/14 02:09:28;;;;;;;0.00;0.00;;;;;;;1.94;89.15;100059.91;15658477;28;20112;-56
2024/01/14 02:17:01;;;;;;;0.00;0.00;;;;;;;1.87;88.75;100049.19;15681644;28;20547;-53
2024/01/14 02:24:38;;;;;;;0.08;0.08;;;;;;;1.77;89.51;100051.19;15680275;28;20406;-55
2024/01/14 02:32:11;;;;;;;0.00;0.00;;;;;;;1.90;88.92;100038.25;15662810;28;20317;-53
2024/01/14 02:39:46;;;;;;;;;;;;;;;1.76;88.91;100037.13;15663411;28;20068;-54
2024/01/14 02:47:19;;;;;;;0.00;0.00;;;;;;;1.72;88.49;100043.75;15668840;28;20012;-54
2024/01/14 02:54:54;;;;;;;;;;;;;;;1.92;87.71;100048.69;15677938;28;20060;-52
2024/01/14 03:02:27;;;;;;;0.00;0.00;;;;;;;1.82;88.15;100040.94;15657145;28;19920;-53
2024/01/14 03:10:02;;;;;;;;;;;;;;;1.71;87.82;100025.44;15661059;28;20045;-51
2024/01/14 03:17:35;;;;;;;0.08;0.08;;;;;;;1.96;86.73;100034.94;15677802;28;19974;-51
2024/01/14 03:25:10;;;;;;;;;;;;;;;1.64;87.50;100008.59;15676176;28;20052;-52
2024/01/14 03:32:43;;;;;;;0.00;0.00;;;;;;;1.54;86.86;100011.44;15676399;28;19941;-53
2024/01/14 03:40:19;;;;;;;0.00;0.00;;;;;;;1.74;86.82;100017.16;15675200;28;20037;-52
2024/01/14 03:47:54;;;;;;;0.00;0.00;;;;;;;1.85;86.39;100015.94;15668626;28;20052;-53
2024/01/14 03:55:30;;;;;;;0.00;0.00;;;;;;;1.76;85.85;100001.94;15675108;28;20047;-55
2024/01/14 04:03:06;;;;;;;0.00;0.00;;;;;;;1.49;86.92;100001.38;15641055;28;20045;-54
2024/01/14 04:10:43;;;;;;;0.00;0.00;;;;;;;1.68;85.54;100002.81;15676082;28;20061;-53
2024/01/14 04:18:17;;;;;;;0.60;0.60;;;;;;;1.41;87.49;99995.28;15657000;28;20053;-53
2024/01/14 04:25:52;;;;;;;1.75;0.63;;;;;;;1.30;87.09;99995.63;15674087;28;20366;-53
2024/01/14 04:33:27;;;;;;;0.00;0.00;;;;;;;1.35;87.06;99996.75;15672926;28;20107;-53
2024/01/14 04:41:03;;;;;;;0.00;0.00;;;;;;;1.38;87.03;100008.81;15668149;28;20065;-53
2024/01/14 04:48:37;;;;;;;0.10;0.10;;;;;;;1.47;86.97;100008.63;15665846;28;20075;-52
2024/01/14 04:56:12;;;;;;;;;;;;;;;1.75;86.71;100013.50;15672575;28;20687;-51
2024/01/14 05:03:51;;;;;;;0.00;0.00;;;;;;;1.94;86.16;100012.28;15647654;28;19928;-52
2024/01/14 05:11:26;;;;;;;;;;;;;;;1.60;86.20;100005.47;15673904;28;20040;-49
2024/01/14 05:18:59;;;;;;;0.00;0.00;;;;;;;1.70;86.42;100002.63;15673910;28;20277;-52
2024/01/14 05:26:40;;;;;;;0.00;0.00;;;;;;;1.75;85.28;100006.41;15667579;28;20056;-52
2024/01/14 05:34:15;;;;;;;0.00;0.00;;;;;;;1.73;85.24;100007.59;15671824;28;20394;-52
2024/01/14 05:41:49;;;;;;;0.00;0.00;;;;;;;1.71;85.84;100015.66;15652754;28;20088;-51
2024/01/14 05:49:23;;;;;;;0.10;0.10;;;;;;;1.82;84.49;99982.75;15657333;28;20068;-52
2024/01/14 05:56:59;;;;;;;0.00;0.00;;;;;;;1.61;84.26;99974.53;15677353;28;20073;-52
2024/01/14 06:04:33;;;;;;;0.00;0.00;;;;;;;1.88;84.79;99992.63;15682800;28;20122;-52
2024/01/14 06:12:19;;;;;;;0.05;0.05;;;;;;;2.10;83.57;99990.19;15683525;28;20049;-53
2024/01/14 06:19:52;;;;;;;0.00;0.00;;;;;;;1.94;84.01;99986.63;15664587;28;20060;-54
2024/01/14 06:27:32;;;;;;;0.00;0.00;;;;;;;2.14;83.47;99988.84;15682806;28;20048;-50
2024/01/14 06:35:08;;;;;;;0.20;0.20;;;;;;;2.03;84.04;99990.06;15681752;28;20292;-51
2024/01/14 06:42:43;;;;;;;0.00;0.00;;;;;;;2.02;83.63;100001.66;15681442;28;20056;-50
2024/01/14 06:50:16;;;;;;;0.00;0.00;;;;;;;1.72;85.47;99996.16;15676633;28;20294;-51
2024/01/14 06:57:54;;;;;;;0.00;0.00;;;;;;;1.94;84.31;99999.03;15683721;28;20045;-52
2024/01/14 07:05:28;;;;;;;0.00;0.00;;;;;;;1.87;84.15;100008.69;15682788;28;20402;-51
2024/01/14 07:13:03;;;;;;;0.00;0.00;;;;;;;2.06;83.96;99994.22;15665255;28;20100;-49
2024/01/14 07:20:38;;;;;;;0.00;0.00;;;;;;;2.02;83.03;99989.25;15681770;28;20044;-48
2024/01/14 07:28:14;;;;;;;0.00;0.00;;;;;;;2.02;83.13;99991.06;15679655;28;20379;-49
2024/01/14 07:35:47;;;;;;;0.00;0.00;;;;;;;1.71;83.90;99994.50;15676190;28;20052;-54
2024/01/14 07:43:23;;;;;;;0.00;0.00;;;;;;;1.78;83.34;99957.63;15678125;28;20068;-50
2024/01/14 07:50:56;;;;;;;0.00;0.00;;;;;;;1.96;83.46;99999.72;15659711;28;20482;-51
2024/01/14 07:58:31;;;;;;;;;;;;;;;1.90;83.93;99997.75;15670832;28;20045;-55
2024/01/14 08:06:06;;;;;;;0.00;0.00;;;;;;;2.27;82.45;100005.00;15655351;28;19921;-51
2024/01/14 08:13:42;;;;;;;0.00;0.00;;;;;;;2.19;83.25;100007.69;15655301;28;20128;-53
2024/01/14 08:21:16;;;;;;;0.00;0.00;;;;;;;1.89;84.34;100001.38;15672703;28;20094;-51
2024/01/14 08:28:50;;;;;;;0.00;0.00;;;;;;;1.99;85.07;100007.28;15668257;28;20379;-50
2024/01/14 08:36:25;;;;;;;0.00;0.00;;;;;;;2.41;82.81;99996.28;15659691;28;20037;-47
2024/01/14 08:44:04;;;;;;;0.00;0.00;;;;;;;2.12;82.89;99991.69;15652559;28;20039;-48
2024/01/14 08:51:39;;;;;;;1.25;0.55;;;;;;;2.50;81.47;99989.94;15639611;28;20084;-53
2024/01/14 08:59:15;;;;;;;0.00;0.00;;;;;;;2.37;82.02;100005.59;15672219;28;20036;-53
2024/01/14 09:06:49;;;;;;;0.00;0.00;;;;;;;2.59;81.43;100001.31;15656159;28;20462;-49
2024/01/14 09:14:25;;;;;;;0.00;0.00;;;;;;;2.50;81.90;99999.72;15671600;28;20098;-52
2024/01/14 09:21:58;;;;;;;0.00;0.00;;;;;;;2.46;81.76;99987.81;15671099;28;20029;-52
2024/01/14 09:29:33;;;;;;;0.50;0.50;;;;;;;2.60;81.43;100013.56;15673740;28;20057;-50
2024/01/14 09:37:08;;;;;;;0.00;0.00;;;;;;;2.28;83.00;100018.09;15681674;28;20433;-49
2024/01/14 09:44:45;;;;;;;0.00;0.00;;;;;;;2.51;81.15;100023.38;15683142;28;20549;-48
2024/01/14 09:52:20;;;;;;;0.00;0.00;;;;;;;2.44;82.04;100009.19;15683911;28;20040;-48
2024/01/14 09:59:56;;;;;;;0.00;0.00;;;;;;;2.46;82.22;100011.66;15679365;28;20045;-52
2024/01/14 10:07:33;;;;;;;0.35;0.35;;;;;;;2.30;83.44;100005.47;15662405;28;20095;-52
2024/01/14 10:15:12;;;;;;;0.00;0.00;;;;;;;2.66;82.81;99996.97;15657945;28;20092;-48
2024/01/14 10:22:46;;;;;;;0.00;0.00;;;;;;;2.69;81.88;99983.34;15680041;28;20041;-51
2024/01/14 10:30:23;;;;;;;0.47;0.47;;;;;;;2.75;81.36;99963.25;15663135;28;20098;-50
2024/01/14 10:37:58;;;;;;;0.00;0.00;;;;;;;2.82;81.00;99958.91;15663066;28;20089;-49
2024/01/14 10:45:33;;;;;;;0.00;0.00;;;;;;;3.05;80.18;99966.81;15648745;28;20045;-52
2024/01/14 10:53:16;;;;;;;0.00;0.00;;;;;;;3.30;78.92;99959.44;15681325;28;20526;-55
2024/01/14 11:00:52;;;;;;;0.00;0.00;;;;;;;3.68;79.01;99960.16;15681744;28;20052;-53
2024/01/14 11:08:26;;;;;;;0.00;0.00;;;;;;;3.53;78.48;99954.03;15681658;28;20295;-52
2024/01/14 11:16:07;;;;;;;0.08;0.08;;;;;;;3.37;79.59;99954.22;15677371;28;20167;-52
2024/01/14 11:23:41;;;;;;;0.00;0.00;;;;;;;2.92;81.77;99956.81;15684166;28;20103;-54
2024/01/14 11:31:17;;;;;;;0.00;0.00;;;;;;;3.10;81.60;99939.75;15672025;28;20041;-52
2024/01/14 11:38:56;;;;;;;0.00;0.00;;;;;;;3.12;82.04;99929.78;15677955;28;20040;-49
2024/01/14 11:46:40;;;;;;;0.00;0.00;;;;;;;3.06;81.33;99912.78;15654855;28;20044;-49
2024/01/14 11:54:14;;;;;;;0.00;0.00;;;;;;;2.98;81.40;99899.59;15652907;28;20048;-51
2024/01/14 12:01:49;;;;;;;;;;;;;;;2.96;80.54;99885.72;15658418;28;20049;-56
2024/01/14 12:09:22;;;;;;;0.10;0.10;;;;;;;2.84;80.93;99877.38;15672827;28;20043;-48
2024/01/14 12:16:57;;;;;;;;;;;;;;;3.40;78.88;99869.78;15654132;28;20041;-53
2024/01/14 12:24:31;;;;;;;0.00;0.00;;;;;;;3.09;79.21;99851.44;15675339;28;21618;-49
2024/01/14 12:32:07;;;;;;;0.00;0.00;;;;;;;3.10;79.07;99850.44;15674365;28;20524;-51
2024/01/14 12:39:43;;;;;;;0.00;0.00;;;;;;;2.74;81.16;99839.72;15657485;28;20553;-52
2024/01/14 12:47:22;;;;;;;0.47;0.47;;;;;;;2.83;82.30;99828.03;15669872;28;20033;-52
2024/01/14 12:54:55;;;;;;;0.00;0.00;;;;;;;2.78;82.31;99819.81;15667672;28;20500;-51
2024/01/14 13:02:31;;;;;;;0.10;0.10;;;;;;;3.08;80.27;99804.75;15646251;28;20052;-53
2024/01/14 13:10:07;;;;;;;0.00;0.00;;;;;;;3.76;77.57;99773.44;15651810;28;20025;-55
2024/01/14 13:17:45;;;;;;;0.00;0.00;;;;;;;3.79;76.81;99768.59;15672562;28;20045;-54
2024/01/14 13:25:19;;;;;;;0.00;0.00;;;;;;;4.01;74.61;99768.53;15672177;28;20516;-54
2024/01/14 13:32:54;;;;;;;;;;;;;;;3.65;73.87;99764.16;15673362;28;20473;-51
2024/01/14 13:40:27;;;;;;;0.00;0.00;;;;;;;3.67;73.56;99756.00;15671065;28;20297;-53
2024/01/14 13:48:02;;;;;;;0.05;0.05;;;;;;;3.30;74.91;99755.22;15661648;28;20091;-52
2024/01/14 13:55:35;;;;;;;0.00;0.00;;;;;;;3.40;73.46;99750.41;15655882;28;20493;-50
2024/01/14 14:03:10;;;;;;;0.00;0.00;;;;;;;3.43;73.90;99739.44;15667972;28;20049;-51
2024/01/14 14:10:46;;;;;;;0.00;0.00;;;;;;;3.49;74.31;99736.03;15669393;28;20090;-52
2024/01/14 14:18:21;;;;;;;0.00;0.00;;;;;;;3.48;74.14;99717.66;15643182;28;20071;-51
2024/01/14 14:25:55;;;;;;;0.00;0.00;;;;;;;3.32;75.05;99722.19;15680812;28;20555;-53
2024/01/14 14:33:30;;;;;;;;;;;;;;;3.31;75.72;99717.91;15679668;28;20099;-55
2024/01/14 14:41:07;;;;;;;0.10;0.10;;;;;;;3.29;76.12;99713.78;15661900;28;20336;-52
2024/01/14 14:48:41;;;;;;;0.00;0.00;;;;;;;2.92;77.54;99701.56;15673763;28;20359;-54
2024/01/14 14:56:14;;;;;;;0.00;0.00;;;;;;;2.97;77.21;99697.31;15672718;28;20071;-52
2024/01/14 15:03:50;;;;;;;0.00;0.00;;;;;;;2.90;77.72;99677.91;15661549;28;20563;-51
2024/01/14 15:11:25;;;;;;;0.00;0.00;;;;;;;2.77;78.11;99659.19;15661833;28;20120;-52
2024/01/14 15:18:59;;;;;;;0.00;0.00;;;;;;;2.73;79.53;99673.81;15680773;28;20129;-50
2024/01/14 15:26:34;;;;;;;0.00;0.00;;;;;;;2.14;83.01;99655.31;15680657;28;20040;-54
2024/01/14 15:34:09;;;;;;;0.00;0.00;;;;;;;2.40;83.87;99645.09;15680968;28;20401;-51
2024/01/14 15:41:46;;;;;;;0.00;0.00;;;;;;;1.87;86.23;99643.53;15674614;28;20117;-51
2024/01/14 15:49:21;;;;;;;0.00;0.00;;;;;;;2.04;86.15;99640.50;15677907;28;20513;-50
2024/01/14 15:56:55;;;;;;;0.05;0.05;;;;;;;2.34;85.29;99623.81;15677999;28;20040;-50
2024/01/14 16:04:30;;;;;;;0.25;0.25;;;;;;;2.09;86.38;99625.91;15676895;28;20527;-52
2024/01/14 16:12:06;;;;;;;0.10;0.10;;;;;;;2.42;84.92;99618.41;15688041;28;20423;-50
2024/01/14 16:19:42;;;;;;;2.00;0.70;;;;;;;2.19;85.69;99602.63;15683740;28;20044;-53
2024/01/14 16:27:16;;;;;;;0.20;0.20;;;;;;;2.37;84.60;99591.66;15680312;28;20102;-55
2024/01/14 16:34:51;;;;;;;;;;;;;;;2.09;86.43;99588.88;15657846;28;20053;-54
2024/01/14 16:42:25;;;;;;;0.00;0.00;;;;;;;2.36;84.53;99574.13;15681334;28;20176;-51
2024/01/14 16:50:04;;;;;;;0.00;0.00;;;;;;;2.20;84.66;99564.59;15668650;28;20037;-51
2024/01/14 16:57:38;;;;;;;0.25;0.25;;;;;;;2.45;84.14;99552.66;15673031;28;20563;-51
2024/01/14 17:05:13;;;;;;;0.20;0.20;;;;;;;2.14;84.30;99530.91;15674914;28;20513;-51
2024/01/14 17:12:46;;;;;;;0.00;0.00;;;;;;;2.22;84.14;99525.50;15658407;28;20172;-52
2024/01/14 17:20:25;;;;;;;0.00;0.00;;;;;;;2.09;83.34;99525.34;15674659;28;20041;-51
2024/01/14 17:27:59;;;;;;;0.10;0.10;;;;;;;2.45;83.75;99506.81;15673202;28;20505;-54
2024/01/14 17:35:34;;;;;;;0.40;0.40;;;;;;;2.15;83.65;99493.69;15673627;28;20056;-49
2024/01/14 17:43:08;;;;;;;0.00;0.00;;;;;;;2.29;82.59;99486.69;15673375;28;20509;-54
2024/01/14 17:50:43;;;;;;;0.00;0.00;;;;;;;2.00;83.80;99480.44;15672510;28;20063;-51
2024/01/14 17:58:17;;;;;;;0.10;0.10;;;;;;;2.37;82.40;99465.38;15684223;28;20477;-52
2024/01/14 18:05:51;;;;;;;;;;;;;;;2.01;83.31;99452.19;15683802;28;20524;-51
2024/01/14 18:13:25;;;;;;;6.90;1.58;;;;;;;2.15;82.67;99446.03;15683883;28;19983;-52
2024/01/14 18:21:03;;;;;;;0.00;0.00;;;;;;;2.06;83.06;99446.34;15682789;28;20485;-50
2024/01/14 18:28:37;;;;;;;0.43;0.38;;;;;;;2.06;82.34;99427.81;15664898;28;20135;-51
2024/01/14 18:36:12;;;;;;;0.20;0.13;;;;;;;2.11;82.30;99417.47;15675695;28;20053;-49
2024/01/14 18:43:46;;;;;;;0.08;0.08;;;;;;;2.18;82.53;99394.53;15681430;28;20049;-48
2024/01/14 18:51:22;;;;;;;0.00;0.00;;;;;;;2.08;83.29;99394.03;15674328;28;20037;-50
2024/01/14 18:58:55;;;;;;;0.00;0.00;;;;;;;2.01;82.48;99380.72;15680913;28;20045;-48
2024/01/14 19:06:30;;;;;;;;;;;;;;;1.98;81.78;99378.44;15671449;28;20064;-50
2024/01/14 19:14:05;;;;;;;0.00;0.00;;;;;;;2.14;80.80;99364.13;15661200;28;20290;-50
2024/01/14 19:21:43;;;;;;;0.10;0.10;;;;;;;2.17;80.95;99350.53;15688500;28;20045;-49
2024/01/14 19:29:20;;;;;;;0.00;0.00;;;;;;;2.39;80.94;99328.34;15679338;28;20045;-51
2024/01/14 19:36:56;;;;;;;0.00;0.00;;;;;;;1.88;81.43;99331.13;15682358;28;20051;-53
2024/01/14 19:44:30;;;;;;;0.00;0.00;;;;;;;2.13;81.19;99323.63;15666462;28;20103;-50
2024/01/14 19:52:05;;;;;;;0.10;0.10;;;;;;;1.77;82.27;99321.88;15675439;28;20559;-51
2024/01/14 19:59:39;;;;;;;0.10;0.10;;;;;;;2.07;81.20;99313.00;15660976;28;20064;-48
2024/01/14 20:07:17;;;;;;;0.10;0.10;;;;;;;1.65;82.10;99257.25;15658906;28;20056;-48
2024/01/14 20:14:51;;;;;;;0.25;0.25;;;;;;;1.73;82.28;99288.06;15676802;28;20049;-50
2024/01/14 20:22:26;;;;;;;0.00;0.00;;;;;;;1.84;82.53;99281.44;15658078;28;20033;-51
2024/01/14 20:29:59;;;;;;;0.20;0.20;;;;;;;1.36;84.92;99268.75;15676383;28;20045;-49
2024/01/14 20:37:35;;;;;;;0.00;0.00;;;;;;;1.74;84.16;99258.78;15675603;28;20044;-49
2024/01/14 20:45:10;;;;;;;0.10;0.10;;;;;;;1.85;84.02;99246.03;15671202;28;20518;-50
2024/01/14 20:52:46;;;;;;;0.03;0.03;;;;;;;1.61;84.07;99226.91;15659189;28;20053;-47
2024/01/14 21:00:20;;;;;;;0.00;0.00;;;;;;;1.76;83.89;99209.13;15658734;28;20044;-50
2024/01/14 21:07:56;;;;;;;0.00;0.00;;;;;;;1.68;84.16;99213.72;15680782;28;20501;-51
2024/01/14 21:15:29;;;;;;;0.00;0.00;;;;;;;1.68;83.98;99192.56;15673918;28;20110;-49
2024/01/14 21:23:04;;;;;;;;;;;;;;;1.74;82.50;99175.97;15657039;28;20045;-51
2024/01/14 21:30:38;;;;;;;0.00;0.00;;;;;;;1.73;82.20;99164.56;15665788;28;19921;-51
2024/01/14 21:38:13;;;;;;;0.25;0.25;;;;;;;1.75;83.12;99167.00;15684749;28;20159;-52
2024/01/14 21:45:49;;;;;;;0.10;0.10;;;;;;;1.66;82.60;99145.16;15676342;28;20421;-51
2024/01/14 21:53:24;;;;;;;0.22;0.22;;;;;;;1.73;82.04;99140.75;15665868;28;20041;-52
2024/01/14 22:00:58;;;;;;;0.00;0.00;;;;;;;1.75;82.34;99122.03;15683748;28;20127;-54
2024/01/14 22:08:33;;;;;;;0.05;0.05;;;;;;;1.65;82.16;99114.44;15683140;28;20099;-51
2024/01/14 22:16:10;;;;;;;0.00;0.00;;;;;;;1.53;83.20;99111.50;15682347;28;20505;-51
2024/01/14 22:23:46;;;;;;;0.10;0.10;;;;;;;1.58;82.96;99113.56;15684034;28;20449;-51
2024/01/14 22:31:25;;;;;;;0.20;0.20;;;;;;;1.56;83.00;99091.81;15681915;28;20032;-51
2024/01/14 22:39:00;;;;;;;0.10;0.10;;;;;;;1.56;82.54;99109.50;15646430;28;20068;-52
2024/01/14 22:46:35;;;;;;;1.30;1.20;;;;;;;1.70;81.21;99085.59;15671493;28;20446;-52
2024/01/14 22:54:09;;;;;;;0.65;0.38;;;;;;;1.56;81.63;99077.75;15657997;28;20045;-51
2024/01/14 23:01:44;;;;;;;0.00;0.00;;;;;;;1.81;81.37;99068.34;15675654;28;20448;-52
2024/01/14 23:09:18;;;;;;;;;;;;;;;1.91;79.57;99052.13;15674850;28;20044;-51
2024/01/14 23:16:52;;;;;;;0.17;0.17;;;;;;;1.66;80.47;99035.91;15674157;28;20020;-54
2024/01/14 23:24:32;;;;;;;0.00;0.00;;;;;;;1.65;80.56;99007.84;15673298;28;20048;-53
2024/01/14 23:32:06;;;;;;;0.55;0.55;;;;;;;1.62;80.16;99011.69;15658417;28;20387;-54
2024/01/14 23:39:40;;;;;;;0.00;0.00;;;;;;;1.65;81.07;98992.78;15665431;28;20069;-51
2024/01/14 23:47:14;;;;;;;0.00;0.00;;;;;;;1.53;80.97;98986.41;15671295;28;20457;-55
2024/01/14 23:54:49;;;;;;;0.35;0.35;;;;;;;1.45;81.58;98971.53;15652414;28;20041;-53
